Belvidere, South Dakota
Current Conditions -  °F | °C
As of 12:55 AM on Monday 22 Dec 2014 (Local Time) from KPHP Reporting Station
Light Rain Light Rain  
Wind Chill: 30°   Ceiling: 6000
Heat Index: 40°   Visibility: 10mi
Dew Point: 37°   Wind: 21mph
Humidity: 89%   Direction: 300°WNW
Pressure: 29.48"   Gusts: 28mph
Location:  43.83°N, 101.27°W
Report Text: KPHP 220755Z AUTO 30018G24KT 10SM -RA FEW024 FEW032 OVC060 04/03 A2948 RMK AO2 SLP985 P0000 T00440028
Loading
Personal Weather Stations






























Interactive Weather Map New forecast layout! Learn more

10-Day Weather Forecast

Advertisements
Track Severe Weather on mobile